createdAt,value
2022-08-19T10:33:04.370Z,25.83
2022-08-19T10:36:19.232Z,22.40
2022-08-19T10:39:23.530Z,22.45
2022-08-19T10:42:27.815Z,23.50
2022-08-19T10:45:32.013Z,20.10
2022-08-19T10:48:37.647Z,23.13
2022-08-19T10:52:00.633Z,22.50
2022-08-19T10:55:25.389Z,25.23
2022-08-19T10:58:33.472Z,20.52
2022-08-19T11:01:37.707Z,25.13
2022-08-19T11:04:41.975Z,23.45
2022-08-19T11:07:46.293Z,24.27
2022-08-19T11:10:50.666Z,17.73
2022-08-19T11:13:55.505Z,25.30
2022-08-19T11:16:59.763Z,21.58
2022-08-19T11:20:06.392Z,20.35
2022-08-19T11:23:10.109Z,18.50
2022-08-19T11:26:15.719Z,23.08
2022-08-19T11:29:22.265Z,19.77
2022-08-19T11:32:26.197Z,17.02
2022-08-19T11:35:30.377Z,18.70
2022-08-19T11:38:36.285Z,21.20
2022-08-19T11:41:41.094Z,20.13
2022-08-19T11:44:44.806Z,17.08
2022-08-19T11:47:48.852Z,15.82
2022-08-19T11:50:56.339Z,14.95
2022-08-19T11:54:00.970Z,20.08
2022-08-19T11:57:05.078Z,19.15
2022-08-19T12:00:12.597Z,17.92
2022-08-19T12:03:16.689Z,20.92
2022-08-19T12:06:34.896Z,20.17
2022-08-19T12:09:42.805Z,18.80
2022-08-19T12:12:47.377Z,19.73
2022-08-19T12:15:57.995Z,24.92
2022-08-19T12:19:04.736Z,17.58
2022-08-19T12:22:09.384Z,16.70
2022-08-19T12:25:13.343Z,17.92
2022-08-19T12:28:18.970Z,14.65
2022-08-19T12:31:22.938Z,16.13
2022-08-19T12:34:30.878Z,15.07
2022-08-19T12:37:34.876Z,16.25
2022-08-19T12:40:40.947Z,14.32
2022-08-19T12:43:45.965Z,19.48
2022-08-19T12:46:50.409Z,17.08
2022-08-19T12:49:58.248Z,19.85
2022-08-19T12:53:02.640Z,17.27
2022-08-19T12:56:12.140Z,19.73
2022-08-19T12:59:18.551Z,16.15
2022-08-19T13:02:23.446Z,17.92
2022-08-19T13:05:30.679Z,20.35
2022-08-19T13:08:34.430Z,17.90
2022-08-19T13:11:38.963Z,15.45
2022-08-19T13:14:43.429Z,17.33
2022-08-19T13:17:51.987Z,14.95
2022-08-19T13:20:57.366Z,17.70
2022-08-19T13:24:01.796Z,16.60
2022-08-19T13:27:05.919Z,18.05
2022-08-19T13:30:31.533Z,18.73
2022-08-19T13:33:36.464Z,21.92
2022-08-19T13:36:40.560Z,18.67
2022-08-19T13:39:45.976Z,16.90
2022-08-19T13:42:52.814Z,19.58
2022-08-19T13:45:57.685Z,16.98
2022-08-19T13:49:01.988Z,19.27
2022-08-19T13:52:06.720Z,15.32
2022-08-19T13:55:12.277Z,18.75
2022-08-19T13:58:16.186Z,15.82
2022-08-19T14:01:24.345Z,17.15
2022-08-19T14:04:28.805Z,22.52
2022-08-19T14:07:33.052Z,19.00
2022-08-19T14:10:37.308Z,19.08
2022-08-19T14:13:41.994Z,19.75
2022-08-19T14:16:46.014Z,20.35
2022-08-19T14:19:50.454Z,20.15
2022-08-19T14:22:55.676Z,16.88
2022-08-19T14:26:08.346Z,16.17
2022-08-19T14:29:13.530Z,13.38
2022-08-19T14:32:17.763Z,15.85
2022-08-19T14:35:25.871Z,19.50
2022-08-19T14:38:32.361Z,15.73
2022-08-19T14:41:36.898Z,14.23
2022-08-19T14:44:41.806Z,16.52
2022-08-19T14:47:46.172Z,15.45
2022-08-19T14:50:50.315Z,13.10
2022-08-19T14:53:54.827Z,16.48
2022-08-19T14:56:58.891Z,15.88
2022-08-19T15:00:04.576Z,16.48
2022-08-19T15:03:08.420Z,13.57
2022-08-19T15:06:12.924Z,12.02
2022-08-19T15:09:17.404Z,14.90
2022-08-19T15:12:22.876Z,16.65
2022-08-19T15:15:27.223Z,15.30
2022-08-19T15:18:31.530Z,16.33
2022-08-19T15:21:37.215Z,20.05
2022-08-19T15:24:47.926Z,17.90
2022-08-19T15:27:53.846Z,18.35
2022-08-19T15:30:57.917Z,17.92
2022-08-19T15:34:02.985Z,18.95
2022-08-19T15:37:07.538Z,19.73
2022-08-19T15:40:12.590Z,23.65
2022-08-19T15:43:18.737Z,23.58
2022-08-19T15:46:28.247Z,25.08
2022-08-19T15:49:33.250Z,24.48
2022-08-19T15:52:37.045Z,20.48
2022-08-19T15:55:52.680Z,18.50
2022-08-19T15:59:15.458Z,22.52
2022-08-19T16:02:39.849Z,23.08
2022-08-19T16:06:02.568Z,22.92
2022-08-19T16:09:06.909Z,20.88
2022-08-19T16:12:11.063Z,18.33
2022-08-19T16:15:15.160Z,18.77
2022-08-19T16:18:19.084Z,19.35
2022-08-19T16:21:26.076Z,21.55
2022-08-19T16:24:30.346Z,21.38
2022-08-19T16:27:34.837Z,19.38
2022-08-19T16:30:39.927Z,18.42
2022-08-19T16:33:43.812Z,16.75
2022-08-19T16:36:48.491Z,20.92
2022-08-19T16:39:52.627Z,18.00
2022-08-19T16:42:56.936Z,20.20
2022-08-19T16:46:01.530Z,19.02
2022-08-19T16:49:05.868Z,18.65
2022-08-19T16:52:10.335Z,17.10
2022-08-19T16:55:14.771Z,17.98
2022-08-19T16:58:20.563Z,20.15
2022-08-19T17:01:32.425Z,18.33
2022-08-19T17:04:36.397Z,20.15
2022-08-19T17:07:39.904Z,20.35
2022-08-19T17:10:56.857Z,18.23
2022-08-19T17:14:08.674Z,17.70
2022-08-19T17:17:12.987Z,18.10
2022-08-19T17:20:17.159Z,18.65
2022-08-19T17:23:42.438Z,18.23
2022-08-19T17:26:47.478Z,14.93
2022-08-19T17:29:53.132Z,21.50
2022-08-19T17:32:57.746Z,16.38
2022-08-19T17:36:04.203Z,18.08
2022-08-19T17:39:08.628Z,15.02
2022-08-19T17:42:12.466Z,13.93
2022-08-19T17:45:17.794Z,15.23
2022-08-19T17:48:22.031Z,16.33
2022-08-19T17:51:42.148Z,12.52
2022-08-19T17:54:46.407Z,14.90
2022-08-19T17:57:51.203Z,14.05
2022-08-19T18:00:55.467Z,14.88
2022-08-19T18:04:01.636Z,17.02
2022-08-19T18:07:06.841Z,15.60
2022-08-19T18:10:11.823Z,16.83
2022-08-19T18:13:17.417Z,16.75
2022-08-19T18:16:22.192Z,15.27
2022-08-19T18:19:29.476Z,12.88
2022-08-19T18:22:48.473Z,16.65
2022-08-19T18:25:52.666Z,13.70
2022-08-19T18:28:57.228Z,17.33
2022-08-19T18:32:01.317Z,15.48
2022-08-19T18:35:11.764Z,15.32
2022-08-19T18:38:37.267Z,14.00
2022-08-19T18:41:59.947Z,17.48
2022-08-19T18:45:24.300Z,16.77
2022-08-19T18:48:47.039Z,16.63
2022-08-19T18:51:51.623Z,15.03
2022-08-19T18:54:55.320Z,14.85
2022-08-19T18:57:59.309Z,14.85
2022-08-19T19:01:11.500Z,16.58
2022-08-19T19:04:21.715Z,17.53
2022-08-19T19:07:26.350Z,17.63
2022-08-19T19:10:30.180Z,16.55
2022-08-19T19:13:37.496Z,14.82
2022-08-19T19:16:45.779Z,16.50
2022-08-19T19:19:51.272Z,18.52
2022-08-19T19:22:56.045Z,17.00
2022-08-19T19:26:02.438Z,16.42
2022-08-19T19:29:06.661Z,16.00
2022-08-19T19:32:18.424Z,14.40
2022-08-19T19:35:22.734Z,16.00
2022-08-19T19:38:26.949Z,14.98
2022-08-19T19:41:33.019Z,19.65
2022-08-19T19:44:41.287Z,16.42
2022-08-19T19:47:51.386Z,21.05
2022-08-19T19:50:56.504Z,18.95
2022-08-19T19:54:01.854Z,16.85
2022-08-19T19:57:06.100Z,14.35
2022-08-19T20:00:15.258Z,15.95
2022-08-19T20:03:20.771Z,17.10
2022-08-19T20:06:24.614Z,18.17
2022-08-19T20:09:49.650Z,17.38
2022-08-19T20:12:54.796Z,20.20
2022-08-19T20:15:59.358Z,17.13
2022-08-19T20:19:03.639Z,18.38
2022-08-19T20:22:07.685Z,15.65
2022-08-19T20:25:12.636Z,16.88
2022-08-19T20:28:17.437Z,15.77
2022-08-19T20:31:22.096Z,14.68
2022-08-19T20:34:27.407Z,19.17
2022-08-19T20:37:31.720Z,17.83
2022-08-19T20:40:36.644Z,21.65
2022-08-19T20:43:40.942Z,24.00
2022-08-19T20:46:54.225Z,21.23
2022-08-19T20:49:59.742Z,22.65
2022-08-19T20:53:15.007Z,21.77
2022-08-19T20:56:19.029Z,20.85
2022-08-19T20:59:23.977Z,17.98
2022-08-19T21:02:27.926Z,20.73
2022-08-19T21:05:32.001Z,23.30
2022-08-19T21:08:37.177Z,22.13
2022-08-19T21:11:41.473Z,25.65
2022-08-19T21:14:47.091Z,22.70
2022-08-19T21:17:51.911Z,22.63
2022-08-19T21:20:56.286Z,20.90
2022-08-19T21:24:01.205Z,23.70
2022-08-19T21:27:05.641Z,21.90
2022-08-19T21:30:10.455Z,23.08
2022-08-19T21:33:15.032Z,21.60
2022-08-19T21:36:20.473Z,21.15
2022-08-19T21:39:24.815Z,21.73
2022-08-19T21:42:29.254Z,19.52
2022-08-19T21:45:33.783Z,21.27
2022-08-19T21:48:37.905Z,19.88
2022-08-19T21:51:42.062Z,20.83
2022-08-19T21:54:46.024Z,22.83
2022-08-19T21:57:50.112Z,20.60
2022-08-19T22:00:54.330Z,23.73
2022-08-19T22:03:58.935Z,22.67
2022-08-19T22:07:03.218Z,27.02
2022-08-19T22:10:07.995Z,26.92
2022-08-19T22:13:11.768Z,24.88
2022-08-19T22:16:17.965Z,21.13
2022-08-19T22:19:21.694Z,26.95
2022-08-19T22:22:29.670Z,23.58
2022-08-19T22:25:38.060Z,28.15
2022-08-19T22:28:42.782Z,25.75
2022-08-19T22:31:54.311Z,24.27
2022-08-19T22:35:00.553Z,24.80
2022-08-19T22:38:07.112Z,23.52
2022-08-19T22:41:11.578Z,24.92
2022-08-19T22:44:15.625Z,25.00
2022-08-19T22:47:19.775Z,29.20
2022-08-19T22:50:24.335Z,27.25
2022-08-19T22:53:28.379Z,25.08
2022-08-19T22:56:32.158Z,27.33
2022-08-19T22:59:36.197Z,26.38
2022-08-19T23:02:52.356Z,25.50
2022-08-19T23:05:56.839Z,26.55
2022-08-19T23:09:01.420Z,24.58
2022-08-19T23:12:08.616Z,27.33
2022-08-19T23:15:19.702Z,26.70
2022-08-19T23:18:24.011Z,26.27
2022-08-19T23:21:28.117Z,28.20
2022-08-19T23:24:31.866Z,31.17
2022-08-19T23:27:54.856Z,31.55
2022-08-19T23:30:58.897Z,32.93
2022-08-19T23:34:05.843Z,30.05
2022-08-19T23:37:09.709Z,29.65
2022-08-19T23:40:16.298Z,33.22
2022-08-19T23:43:24.466Z,31.25
2022-08-19T23:46:29.410Z,31.42
2022-08-19T23:49:35.623Z,33.67
2022-08-19T23:52:54.801Z,34.95
2022-08-19T23:55:58.871Z,28.73
2022-08-19T23:59:02.920Z,31.13
